createdAt,value
2023-01-22T00:01:39.868Z,118.22
2023-01-22T00:03:46.569Z,123.00
2023-01-22T00:05:52.665Z,131.52
2023-01-22T00:10:00.401Z,108.20
2023-01-22T00:12:03.608Z,126.20
2023-01-22T00:14:06.789Z,126.32
2023-01-22T00:16:12.474Z,123.68
2023-01-22T00:18:15.768Z,100.55
2023-01-22T00:20:20.410Z,108.07
2023-01-22T00:22:23.627Z,98.88
2023-01-22T00:24:26.647Z,106.03
2023-01-22T00:26:29.541Z,107.28
2023-01-22T00:28:32.673Z,117.93
2023-01-22T00:30:35.693Z,134.65
2023-01-22T00:32:38.550Z,133.50
2023-01-22T00:34:41.506Z,136.45
2023-01-22T00:36:45.827Z,139.55
2023-01-22T00:38:52.107Z,125.03
2023-01-22T00:40:54.998Z,142.00
2023-01-22T00:42:58.177Z,97.43
2023-01-22T00:45:00.999Z,92.28
2023-01-22T00:47:04.103Z,73.43
2023-01-22T00:49:06.956Z,73.47
2023-01-22T00:51:10.566Z,87.45
2023-01-22T00:53:15.356Z,75.95
2023-01-22T00:55:18.417Z,83.43
2023-01-22T00:57:22.271Z,81.45
2023-01-22T00:59:25.407Z,85.05
2023-01-22T01:01:28.708Z,85.53
2023-01-22T01:03:34.288Z,80.20
2023-01-22T01:05:37.330Z,72.35
2023-01-22T01:07:40.267Z,78.35
2023-01-22T01:09:44.579Z,72.80
2023-01-22T01:11:47.647Z,73.00
2023-01-22T01:13:51.977Z,73.97
2023-01-22T01:16:00.896Z,80.95
2023-01-22T01:18:04.095Z,88.60
2023-01-22T01:20:07.945Z,87.80
2023-01-22T01:22:11.167Z,74.05
2023-01-22T01:24:15.626Z,83.18
2023-01-22T01:26:20.771Z,105.47
2023-01-22T01:28:25.128Z,91.30
2023-01-22T01:30:28.077Z,88.50
2023-01-22T01:32:31.087Z,89.18
2023-01-22T01:34:34.169Z,82.82
2023-01-22T01:36:49.130Z,80.90
2023-01-22T01:38:53.037Z,86.38
2023-01-22T01:40:56.054Z,87.32
2023-01-22T01:43:00.609Z,78.03
2023-01-22T01:45:19.617Z,78.97
2023-01-22T01:47:32.626Z,81.22
2023-01-22T01:49:38.391Z,80.30
2023-01-22T01:51:41.287Z,81.30
2023-01-22T01:53:46.765Z,84.32
2023-01-22T01:55:50.746Z,86.70
2023-01-22T01:57:55.763Z,86.60
2023-01-22T02:00:04.749Z,90.80
2023-01-22T02:02:17.134Z,97.53
2023-01-22T02:04:20.183Z,98.88
2023-01-22T02:06:23.168Z,102.25
2023-01-22T02:08:26.568Z,93.18
2023-01-22T02:10:29.622Z,112.32
2023-01-22T02:12:34.290Z,95.60
2023-01-22T02:14:42.287Z,107.40
2023-01-22T02:16:46.647Z,106.47
2023-01-22T02:18:50.200Z,104.95
2023-01-22T02:20:59.956Z,106.25
2023-01-22T02:23:02.967Z,101.00
2023-01-22T02:25:07.807Z,104.53
2023-01-22T02:27:10.807Z,99.17
2023-01-22T02:29:14.768Z,78.35
2023-01-22T02:31:17.711Z,83.05
2023-01-22T02:33:20.557Z,81.93
2023-01-22T02:35:23.477Z,83.43
2023-01-22T02:37:27.839Z,90.75
2023-01-22T02:39:32.208Z,94.80
2023-01-22T02:41:38.377Z,78.80
2023-01-22T02:43:41.447Z,89.15
2023-01-22T02:45:44.423Z,87.35
2023-01-22T02:47:47.896Z,83.10
2023-01-22T02:49:50.729Z,93.63
2023-01-22T02:51:53.808Z,94.85
2023-01-22T02:53:59.286Z,94.40
2023-01-22T02:56:06.158Z,100.87
2023-01-22T02:58:09.398Z,83.78
2023-01-22T03:00:15.253Z,86.70
2023-01-22T03:02:18.455Z,86.63
2023-01-22T03:04:23.347Z,78.60
2023-01-22T03:06:28.047Z,83.07
2023-01-22T03:08:33.937Z,83.22
2023-01-22T03:10:38.287Z,89.07
2023-01-22T03:12:59.933Z,84.43
2023-01-22T03:15:21.489Z,80.50
2023-01-22T03:17:43.151Z,80.28
2023-01-22T03:20:04.987Z,77.45
2023-01-22T03:22:08.007Z,81.80
2023-01-22T03:24:10.927Z,75.20
2023-01-22T03:26:16.287Z,80.38
2023-01-22T03:28:19.705Z,76.20
2023-01-22T03:30:30.407Z,83.22
2023-01-22T03:32:34.073Z,77.88
2023-01-22T03:34:37.651Z,78.32
2023-01-22T03:36:41.847Z,75.20
2023-01-22T03:38:46.607Z,80.00
2023-01-22T03:40:53.837Z,85.00
2023-01-22T03:42:59.890Z,81.65
2023-01-22T03:45:03.594Z,75.88
2023-01-22T03:47:08.099Z,75.70
2023-01-22T03:49:13.627Z,78.13
2023-01-22T03:51:18.083Z,79.25
2023-01-22T03:53:20.967Z,81.43
2023-01-22T03:55:25.775Z,80.32
2023-01-22T03:57:31.286Z,80.30
2023-01-22T03:59:35.789Z,76.72
2023-01-22T04:01:39.334Z,76.18
2023-01-22T04:03:42.737Z,83.47
2023-01-22T04:05:47.272Z,81.68
2023-01-22T04:07:51.126Z,79.82
2023-01-22T04:09:57.808Z,82.82
2023-01-22T04:12:01.417Z,79.05
2023-01-22T04:14:04.727Z,79.50
2023-01-22T04:16:12.126Z,73.88
2023-01-22T04:18:41.647Z,79.00
2023-01-22T04:21:03.190Z,77.78
2023-01-22T04:23:15.607Z,78.03
2023-01-22T04:25:18.726Z,76.38
2023-01-22T04:27:21.547Z,78.80
2023-01-22T04:29:27.455Z,79.05
2023-01-22T04:31:32.308Z,76.35
2023-01-22T04:33:55.616Z,76.40
2023-01-22T04:36:02.708Z,71.78
2023-01-22T04:38:07.916Z,72.85
2023-01-22T04:40:12.007Z,68.22
2023-01-22T04:42:15.068Z,67.72
2023-01-22T04:44:18.288Z,63.72
2023-01-22T04:46:21.539Z,64.57
2023-01-22T04:48:26.587Z,61.97
2023-01-22T04:50:32.736Z,71.28
2023-01-22T04:52:35.668Z,62.05
2023-01-22T04:54:38.649Z,63.53
2023-01-22T04:56:41.597Z,65.72
2023-01-22T04:58:44.607Z,62.63
2023-01-22T05:00:49.591Z,61.05
2023-01-22T05:02:57.611Z,64.75
2023-01-22T05:05:02.076Z,65.75
2023-01-22T05:07:05.057Z,56.15
2023-01-22T05:09:08.072Z,67.25
2023-01-22T05:11:25.617Z,59.20
2023-01-22T05:13:33.326Z,63.13
2023-01-22T05:15:36.592Z,58.47
2023-01-22T05:17:44.847Z,63.25
2023-01-22T05:19:48.098Z,60.50
2023-01-22T05:21:56.429Z,64.05
2023-01-22T05:23:59.472Z,60.93
2023-01-22T05:26:04.767Z,61.50
2023-01-22T05:28:23.607Z,60.25
2023-01-22T05:30:43.918Z,51.33
2023-01-22T05:32:59.809Z,52.85
2023-01-22T05:35:05.080Z,51.58
2023-01-22T05:37:12.576Z,48.10
2023-01-22T05:39:16.927Z,49.40
2023-01-22T05:41:20.097Z,49.22
2023-01-22T05:43:23.654Z,52.17
2023-01-22T05:45:31.542Z,50.13
2023-01-22T05:47:52.830Z,50.67
2023-01-22T05:50:22.137Z,46.78
2023-01-22T05:52:38.527Z,51.03
2023-01-22T05:54:41.497Z,52.05
2023-01-22T05:56:44.646Z,47.80
2023-01-22T05:58:48.256Z,53.75
2023-01-22T06:00:53.167Z,49.15
2023-01-22T06:03:01.331Z,49.20
2023-01-22T06:05:10.377Z,51.75
2023-01-22T06:07:13.272Z,50.03
2023-01-22T06:09:17.848Z,45.92
2023-01-22T06:11:20.813Z,43.20
2023-01-22T06:13:23.820Z,49.10
2023-01-22T06:15:30.420Z,38.22
2023-01-22T06:17:45.329Z,40.60
2023-01-22T06:19:50.272Z,43.00
2023-01-22T06:21:54.789Z,39.53
2023-01-22T06:24:06.529Z,44.15
2023-01-22T06:26:11.048Z,46.65
2023-01-22T06:28:14.930Z,44.83
2023-01-22T06:30:20.376Z,40.72
2023-01-22T06:32:23.529Z,39.30
2023-01-22T06:34:27.908Z,45.15
2023-01-22T06:36:31.329Z,41.47
2023-01-22T06:38:34.613Z,41.97
2023-01-22T06:40:39.619Z,42.60
2023-01-22T06:42:45.022Z,41.78
2023-01-22T06:44:48.197Z,44.72
2023-01-22T06:46:51.258Z,40.03
2023-01-22T06:49:01.991Z,42.17
2023-01-22T06:51:05.363Z,37.53
2023-01-22T06:53:08.478Z,42.17
2023-01-22T06:55:12.371Z,42.80
2023-01-22T06:57:15.678Z,42.65
2023-01-22T06:59:20.169Z,44.83
2023-01-22T07:01:23.353Z,43.60
2023-01-22T07:03:26.620Z,43.55
2023-01-22T07:05:29.481Z,40.88
2023-01-22T07:07:32.470Z,40.10
2023-01-22T07:09:35.640Z,41.70
2023-01-22T07:11:38.610Z,42.42
2023-01-22T07:13:41.569Z,44.22
2023-01-22T07:15:46.013Z,38.85
2023-01-22T07:17:51.386Z,47.28
2023-01-22T07:19:54.394Z,44.28
2023-01-22T07:21:58.688Z,42.47
2023-01-22T07:24:01.895Z,44.13
2023-01-22T07:26:05.230Z,41.60
2023-01-22T07:28:08.765Z,41.08
2023-01-22T07:30:12.708Z,41.53
2023-01-22T07:32:17.478Z,40.47
2023-01-22T07:34:20.708Z,39.45
2023-01-22T07:36:24.213Z,39.45
2023-01-22T07:38:28.607Z,37.40
2023-01-22T07:40:31.803Z,47.20
2023-01-22T07:42:34.808Z,37.47
2023-01-22T07:44:40.633Z,37.05
2023-01-22T07:46:43.610Z,38.72
2023-01-22T07:48:47.976Z,41.65
2023-01-22T07:50:50.996Z,45.33
2023-01-22T07:52:54.652Z,37.75
2023-01-22T07:54:57.499Z,40.60
2023-01-22T07:57:00.389Z,37.72
2023-01-22T07:59:03.327Z,37.80
2023-01-22T08:01:06.957Z,41.03
2023-01-22T08:03:14.779Z,37.05
2023-01-22T08:05:19.352Z,35.97
2023-01-22T08:07:23.748Z,31.45
2023-01-22T08:09:26.759Z,33.88
2023-01-22T08:11:29.769Z,34.22
2023-01-22T08:13:32.828Z,31.75
2023-01-22T08:15:36.030Z,31.38
2023-01-22T08:17:39.731Z,34.80
2023-01-22T08:19:42.660Z,32.03
2023-01-22T08:21:47.249Z,32.85
2023-01-22T08:23:50.210Z,30.30
2023-01-22T08:25:53.213Z,34.22
2023-01-22T08:27:56.588Z,37.63
2023-01-22T08:29:59.609Z,43.65
2023-01-22T08:32:02.561Z,50.38
2023-01-22T08:34:05.792Z,50.70
2023-01-22T08:36:09.769Z,46.05
2023-01-22T08:38:14.319Z,35.42
2023-01-22T08:40:18.838Z,39.88
2023-01-22T08:42:21.983Z,36.20
2023-01-22T08:44:25.260Z,39.38
2023-01-22T08:46:28.538Z,39.85
2023-01-22T08:48:31.491Z,42.95
2023-01-22T08:50:34.500Z,44.92
2023-01-22T08:52:37.450Z,38.83
2023-01-22T08:54:41.841Z,41.47
2023-01-22T08:56:44.688Z,43.10
2023-01-22T08:58:50.353Z,41.92
2023-01-22T09:02:59.198Z,39.05
2023-01-22T09:05:02.069Z,39.53
2023-01-22T09:07:05.136Z,34.63
2023-01-22T09:09:08.239Z,35.22
2023-01-22T09:11:12.707Z,36.60
2023-01-22T09:13:15.582Z,36.05
2023-01-22T09:15:18.688Z,31.88
2023-01-22T09:17:21.576Z,36.53
2023-01-22T09:19:25.039Z,36.47
2023-01-22T09:21:27.938Z,34.60
2023-01-22T09:23:30.969Z,41.47
2023-01-22T09:25:33.828Z,36.60
2023-01-22T09:27:38.413Z,38.63
2023-01-22T09:29:41.250Z,35.03
2023-01-22T09:31:44.294Z,36.80
2023-01-22T09:33:47.280Z,33.80
2023-01-22T09:35:50.238Z,39.67
2023-01-22T09:37:53.248Z,33.67
2023-01-22T09:39:56.231Z,39.13
2023-01-22T09:42:01.423Z,40.20
2023-01-22T09:44:11.864Z,36.28
2023-01-22T09:46:20.425Z,36.67
2023-01-22T09:48:25.077Z,40.25
2023-01-22T09:50:30.738Z,34.25
2023-01-22T09:52:37.978Z,29.63
2023-01-22T09:54:42.607Z,30.83
2023-01-22T09:56:47.709Z,31.50
2023-01-22T09:58:52.247Z,25.45
2023-01-22T10:01:00.748Z,24.23
2023-01-22T10:03:07.393Z,31.88
2023-01-22T10:05:20.499Z,28.20
2023-01-22T10:07:26.268Z,28.17
2023-01-22T10:09:32.249Z,30.05
2023-01-22T10:11:35.177Z,25.60
2023-01-22T10:13:39.624Z,31.08
2023-01-22T10:15:42.974Z,33.50
2023-01-22T10:17:48.567Z,32.67
2023-01-22T10:19:56.177Z,39.25
2023-01-22T10:22:01.748Z,35.97
2023-01-22T10:24:04.748Z,37.90
2023-01-22T10:26:16.704Z,42.08
2023-01-22T10:28:26.015Z,38.88
2023-01-22T10:30:30.646Z,45.00
2023-01-22T10:32:33.866Z,43.63
2023-01-22T10:34:38.251Z,45.97
2023-01-22T10:36:41.177Z,51.05
2023-01-22T10:38:44.089Z,41.90
2023-01-22T10:40:46.968Z,42.17
2023-01-22T10:43:01.302Z,36.95
2023-01-22T10:45:16.788Z,40.28
2023-01-22T10:47:22.855Z,32.70
2023-01-22T10:49:27.127Z,34.90
2023-01-22T10:51:35.051Z,30.67
2023-01-22T10:53:44.399Z,32.63
2023-01-22T10:55:54.207Z,30.92
2023-01-22T10:58:05.091Z,29.70
2023-01-22T11:00:23.837Z,30.30
2023-01-22T11:02:27.163Z,29.17
2023-01-22T11:04:32.248Z,26.33
2023-01-22T11:06:42.314Z,26.35
2023-01-22T11:08:50.654Z,27.55
2023-01-22T11:10:57.047Z,28.77
2023-01-22T11:13:06.419Z,25.55
2023-01-22T11:15:21.708Z,28.42
2023-01-22T11:17:31.607Z,29.27
2023-01-22T11:19:41.396Z,28.60
2023-01-22T11:21:47.809Z,29.33
2023-01-22T11:23:56.373Z,31.98
2023-01-22T11:26:10.168Z,27.88
2023-01-22T11:28:34.089Z,31.13
2023-01-22T11:30:53.902Z,30.48
2023-01-22T11:33:05.650Z,28.63
2023-01-22T11:35:19.623Z,35.60
2023-01-22T11:37:46.614Z,34.70
2023-01-22T11:40:01.468Z,30.13
2023-01-22T11:42:13.855Z,35.25
2023-01-22T11:44:41.118Z,34.45
2023-01-22T11:47:01.367Z,32.75
2023-01-22T11:49:14.048Z,32.83
2023-01-22T11:51:24.754Z,33.95
2023-01-22T11:53:48.748Z,34.05
2023-01-22T11:56:11.128Z,34.72
2023-01-22T11:58:25.129Z,36.20
2023-01-22T12:00:42.657Z,31.63
2023-01-22T12:03:21.174Z,33.65
2023-01-22T12:05:36.727Z,32.17
2023-01-22T12:07:58.153Z,31.77
2023-01-22T12:10:23.500Z,33.45
2023-01-22T12:12:41.892Z,29.55
2023-01-22T12:15:11.790Z,31.10
2023-01-22T12:17:25.683Z,36.08
2023-01-22T12:19:47.850Z,33.03
2023-01-22T12:21:58.692Z,33.30
2023-01-22T12:24:09.507Z,34.70
2023-01-22T12:26:18.158Z,35.03
2023-01-22T12:28:27.008Z,33.65
2023-01-22T12:30:38.333Z,36.47
2023-01-22T12:32:46.908Z,34.92
2023-01-22T12:34:55.657Z,36.67
2023-01-22T12:37:00.819Z,35.88
2023-01-22T12:39:14.064Z,36.83
2023-01-22T12:41:41.458Z,28.92
2023-01-22T12:43:51.040Z,32.75
2023-01-22T12:45:59.382Z,41.40
2023-01-22T12:48:11.969Z,42.33
2023-01-22T12:50:19.486Z,39.05
2023-01-22T12:52:33.112Z,46.80
2023-01-22T12:54:37.116Z,44.53
2023-01-22T12:56:41.527Z,37.25
2023-01-22T12:58:44.607Z,37.95
2023-01-22T13:00:47.590Z,37.08
2023-01-22T13:02:50.972Z,33.80
2023-01-22T13:04:54.778Z,39.63
2023-01-22T13:07:21.048Z,39.58
2023-01-22T13:09:26.096Z,34.15
2023-01-22T13:11:32.158Z,36.33
2023-01-22T13:13:44.743Z,35.65
2023-01-22T13:15:55.014Z,36.60
2023-01-22T13:18:07.101Z,32.90
2023-01-22T13:20:16.940Z,31.20
2023-01-22T13:22:24.045Z,31.02
2023-01-22T13:24:27.128Z,35.78
2023-01-22T13:26:31.887Z,32.88
2023-01-22T13:28:36.297Z,35.45
2023-01-22T13:30:39.342Z,30.42
2023-01-22T13:32:42.428Z,35.63
2023-01-22T13:34:45.430Z,31.80
2023-01-22T13:36:50.589Z,35.63
2023-01-22T13:38:55.335Z,32.13
2023-01-22T13:41:00.914Z,33.47
2023-01-22T13:43:06.308Z,31.92
2023-01-22T13:45:19.771Z,37.60
2023-01-22T13:47:28.782Z,37.20
2023-01-22T13:49:33.648Z,36.67
2023-01-22T13:51:37.418Z,32.25
2023-01-22T13:53:43.311Z,36.78
2023-01-22T13:55:46.583Z,33.42
2023-01-22T13:57:51.670Z,39.83
2023-01-22T13:59:56.157Z,34.38
2023-01-22T14:02:11.550Z,32.80
2023-01-22T14:04:32.388Z,36.20
2023-01-22T14:06:46.525Z,36.95
2023-01-22T14:08:50.879Z,35.65
2023-01-22T14:10:57.939Z,35.45
2023-01-22T14:13:01.828Z,38.78
2023-01-22T14:15:15.070Z,36.28
2023-01-22T14:17:24.258Z,33.40
2023-01-22T14:19:27.248Z,37.63
2023-01-22T14:21:30.660Z,36.20
2023-01-22T14:23:34.120Z,38.85
2023-01-22T14:25:37.829Z,36.42
2023-01-22T14:27:43.271Z,33.88
2023-01-22T14:29:46.358Z,36.03
2023-01-22T14:31:49.373Z,30.50
2023-01-22T14:33:53.848Z,33.33
2023-01-22T14:35:57.298Z,33.92
2023-01-22T14:38:00.317Z,34.72
2023-01-22T14:40:04.209Z,32.05
2023-01-22T14:42:07.114Z,32.55
2023-01-22T14:44:11.177Z,32.22
2023-01-22T14:46:14.059Z,35.38
2023-01-22T14:48:19.629Z,33.65
2023-01-22T14:52:26.901Z,33.50
2023-01-22T14:54:29.891Z,34.47
2023-01-22T14:56:32.890Z,29.98
2023-01-22T14:58:36.575Z,31.05
2023-01-22T15:00:40.121Z,37.83
2023-01-22T15:02:43.172Z,35.55
2023-01-22T15:04:46.860Z,32.33
2023-01-22T15:06:51.311Z,34.72
2023-01-22T15:08:54.367Z,35.10
2023-01-22T15:11:00.208Z,32.28
2023-01-22T15:13:03.206Z,31.95
2023-01-22T15:15:09.300Z,33.95
2023-01-22T15:17:12.238Z,32.58
2023-01-22T15:19:17.551Z,31.55
2023-01-22T15:21:21.450Z,33.80
2023-01-22T15:23:25.979Z,33.38
2023-01-22T15:25:29.270Z,35.55
2023-01-22T15:27:32.198Z,27.67
2023-01-22T15:29:35.268Z,34.95
2023-01-22T15:31:38.575Z,33.22
2023-01-22T15:33:41.939Z,34.63
2023-01-22T15:35:45.158Z,36.58
2023-01-22T15:37:48.860Z,35.08
2023-01-22T15:39:53.309Z,33.33
2023-01-22T15:41:56.305Z,35.88
2023-01-22T15:44:01.767Z,38.30
2023-01-22T15:46:05.080Z,34.67
2023-01-22T15:48:08.464Z,32.80
2023-01-22T15:50:12.288Z,34.35
2023-01-22T15:52:15.175Z,36.22
2023-01-22T15:54:18.098Z,35.70
2023-01-22T15:56:27.083Z,38.42
2023-01-22T15:58:32.168Z,41.67
2023-01-22T16:02:40.712Z,45.03
2023-01-22T16:04:44.247Z,42.53
2023-01-22T16:06:47.971Z,37.67
2023-01-22T16:08:53.136Z,41.03
2023-01-22T16:10:56.762Z,43.28
2023-01-22T16:13:03.193Z,38.25
2023-01-22T16:15:09.218Z,44.88
2023-01-22T16:17:12.047Z,42.20
2023-01-22T16:19:15.432Z,47.85
2023-01-22T16:21:20.742Z,52.72
2023-01-22T16:23:24.871Z,56.75
2023-01-22T16:25:28.609Z,49.65
2023-01-22T16:27:31.951Z,52.50
2023-01-22T16:29:36.827Z,60.20
2023-01-22T16:31:39.978Z,63.78
2023-01-22T16:33:45.045Z,60.53
2023-01-22T16:35:48.206Z,61.67
2023-01-22T16:37:51.164Z,60.55
2023-01-22T16:39:54.155Z,62.90
2023-01-22T16:41:57.333Z,63.80
2023-01-22T16:44:02.068Z,59.72
2023-01-22T16:46:06.417Z,59.13
2023-01-22T16:48:09.477Z,59.35
2023-01-22T16:50:12.415Z,60.25
2023-01-22T16:52:22.381Z,63.72
2023-01-22T16:54:30.600Z,62.53
2023-01-22T16:56:33.768Z,60.03
2023-01-22T16:58:37.326Z,58.35
2023-01-22T17:00:40.285Z,65.97
2023-01-22T17:02:44.575Z,68.60
2023-01-22T17:04:47.593Z,75.40
2023-01-22T17:06:52.087Z,76.97
2023-01-22T17:08:55.337Z,71.63
2023-01-22T17:10:58.300Z,64.18
2023-01-22T17:13:01.156Z,67.57
2023-01-22T17:15:04.347Z,70.90
2023-01-22T17:17:08.886Z,68.57
2023-01-22T17:19:13.647Z,62.50
2023-01-22T17:21:18.315Z,59.72
2023-01-22T17:23:21.178Z,59.28
2023-01-22T17:25:24.080Z,52.45
2023-01-22T17:27:26.878Z,60.67
2023-01-22T17:29:32.215Z,53.33
2023-01-22T17:31:35.289Z,58.65
2023-01-22T17:33:38.920Z,54.30
2023-01-22T17:35:43.164Z,53.67
2023-01-22T17:37:46.324Z,48.50
2023-01-22T17:39:50.965Z,42.10
2023-01-22T17:41:54.117Z,43.83
2023-01-22T17:43:58.971Z,37.63
2023-01-22T17:46:01.971Z,37.95
2023-01-22T17:48:05.267Z,41.08
2023-01-22T17:50:09.287Z,37.20
2023-01-22T17:52:14.837Z,36.08
2023-01-22T17:56:22.398Z,36.25
2023-01-22T17:58:25.287Z,34.97
2023-01-22T18:00:28.166Z,37.50
2023-01-22T18:02:31.359Z,35.83
2023-01-22T18:04:35.257Z,40.67
2023-01-22T18:06:39.496Z,36.50
2023-01-22T18:08:44.050Z,39.63
2023-01-22T18:10:46.997Z,36.17
2023-01-22T18:12:49.796Z,37.92
2023-01-22T18:14:52.677Z,39.00
2023-01-22T18:16:58.208Z,39.38
2023-01-22T18:21:07.755Z,45.65
2023-01-22T18:23:11.006Z,40.95
2023-01-22T18:25:15.458Z,41.53
2023-01-22T18:27:18.425Z,39.03
2023-01-22T18:29:21.399Z,40.75
2023-01-22T18:31:25.861Z,43.50
2023-01-22T18:33:28.827Z,41.05
2023-01-22T18:35:34.898Z,41.40
2023-01-22T18:37:38.319Z,44.35
2023-01-22T18:39:41.368Z,40.08
2023-01-22T18:41:47.345Z,39.80
2023-01-22T18:43:53.719Z,40.17
2023-01-22T18:46:02.063Z,33.47
2023-01-22T18:48:05.726Z,42.58
2023-01-22T18:50:12.252Z,41.17
2023-01-22T18:52:15.608Z,44.20
2023-01-22T18:54:18.572Z,36.38
2023-01-22T18:56:21.926Z,38.13
2023-01-22T18:58:34.277Z,36.55
2023-01-22T19:00:38.266Z,40.70
2023-01-22T19:02:41.530Z,39.55
2023-01-22T19:04:44.459Z,40.92
2023-01-22T19:06:52.178Z,37.22
2023-01-22T19:08:57.076Z,33.15
2023-01-22T19:11:06.707Z,39.28
2023-01-22T19:13:10.005Z,36.60
2023-01-22T19:15:14.326Z,38.28
2023-01-22T19:17:17.489Z,44.22
2023-01-22T19:19:21.841Z,41.72
2023-01-22T19:21:25.787Z,38.80
2023-01-22T19:23:28.717Z,41.95
2023-01-22T19:25:32.037Z,37.63
2023-01-22T19:27:35.010Z,39.55
2023-01-22T19:29:38.008Z,40.95
2023-01-22T19:31:46.208Z,41.95
2023-01-22T19:33:51.887Z,39.13
2023-01-22T19:37:57.847Z,38.60
2023-01-22T19:40:00.767Z,39.60
2023-01-22T19:42:05.447Z,38.08
2023-01-22T19:44:09.779Z,38.05
2023-01-22T19:46:14.426Z,40.83
2023-01-22T19:48:18.988Z,35.60
2023-01-22T19:50:25.489Z,37.92
2023-01-22T19:52:28.808Z,38.40
2023-01-22T19:54:31.968Z,34.90
2023-01-22T19:56:37.250Z,38.47
2023-01-22T19:58:40.177Z,40.55
2023-01-22T20:00:43.143Z,39.47
2023-01-22T20:02:46.367Z,38.63
2023-01-22T20:04:50.726Z,41.55
2023-01-22T20:06:57.798Z,40.72
2023-01-22T20:09:00.728Z,41.90
2023-01-22T20:11:05.007Z,42.25
2023-01-22T20:13:09.965Z,39.85
2023-01-22T20:15:14.874Z,44.17
2023-01-22T20:17:18.527Z,36.63
2023-01-22T20:19:21.746Z,39.88
2023-01-22T20:21:27.337Z,34.63
2023-01-22T20:25:33.372Z,36.78
2023-01-22T20:27:36.769Z,40.33
2023-01-22T20:29:41.002Z,44.03
2023-01-22T20:31:45.044Z,35.60
2023-01-22T20:33:48.141Z,38.83
2023-01-22T20:35:51.037Z,41.28
2023-01-22T20:37:55.411Z,46.13
2023-01-22T20:40:00.318Z,46.25
2023-01-22T20:42:03.267Z,38.40
2023-01-22T20:44:06.858Z,37.42
2023-01-22T20:46:13.307Z,45.35
2023-01-22T20:48:17.479Z,46.05
2023-01-22T20:50:20.668Z,42.03
2023-01-22T20:52:23.657Z,37.40
2023-01-22T20:54:28.570Z,39.45
2023-01-22T20:56:33.188Z,40.70
2023-01-22T20:58:36.798Z,38.40
2023-01-22T21:00:40.179Z,39.53
2023-01-22T21:02:43.089Z,36.50
2023-01-22T21:04:46.508Z,38.30
2023-01-22T21:06:49.358Z,37.78
2023-01-22T21:08:56.458Z,37.55
2023-01-22T21:11:02.702Z,38.95
2023-01-22T21:13:05.578Z,39.00
2023-01-22T21:15:09.889Z,45.63
2023-01-22T21:17:12.887Z,44.42
2023-01-22T21:19:22.109Z,52.25
2023-01-22T21:21:25.690Z,54.88
2023-01-22T21:23:28.547Z,62.28
2023-01-22T21:25:31.430Z,54.45
2023-01-22T21:27:35.849Z,62.25
2023-01-22T21:29:39.808Z,48.63
2023-01-22T21:31:43.706Z,47.50
2023-01-22T21:33:47.147Z,56.33
2023-01-22T21:35:50.451Z,66.28
2023-01-22T21:37:53.459Z,58.92
2023-01-22T21:39:56.347Z,54.80
2023-01-22T21:42:19.621Z,57.20
2023-01-22T21:44:42.527Z,55.47
2023-01-22T21:46:46.586Z,55.25
2023-01-22T21:48:49.817Z,58.67
2023-01-22T21:50:52.786Z,58.45
2023-01-22T21:52:55.733Z,63.45
2023-01-22T21:54:59.457Z,67.13
2023-01-22T21:57:03.245Z,58.60
2023-01-22T21:59:06.191Z,60.58
2023-01-22T22:01:11.410Z,62.72
2023-01-22T22:03:16.351Z,60.40
2023-01-22T22:05:19.448Z,65.15
2023-01-22T22:07:22.347Z,61.13
2023-01-22T22:09:27.467Z,57.97
2023-01-22T22:11:30.578Z,61.50
2023-01-22T22:13:35.435Z,63.72
2023-01-22T22:15:39.297Z,67.13
2023-01-22T22:17:45.127Z,70.20
2023-01-22T22:19:48.217Z,63.83
2023-01-22T22:21:51.519Z,64.18
2023-01-22T22:23:57.317Z,66.80
2023-01-22T22:26:01.047Z,68.00
2023-01-22T22:28:04.455Z,60.15
2023-01-22T22:30:08.809Z,59.55
2023-01-22T22:32:12.017Z,61.43
2023-01-22T22:34:16.451Z,61.38
2023-01-22T22:36:21.696Z,59.88
2023-01-22T22:38:24.557Z,51.00
2023-01-22T22:40:27.567Z,66.43
2023-01-22T22:42:30.968Z,57.17
2023-01-22T22:44:35.958Z,57.35
2023-01-22T22:46:40.288Z,58.97
2023-01-22T22:48:43.817Z,60.10
2023-01-22T22:50:48.350Z,55.92
2023-01-22T22:52:51.369Z,53.33
2023-01-22T22:54:54.216Z,61.70
2023-01-22T22:56:57.210Z,54.45
2023-01-22T22:59:04.015Z,58.58
2023-01-22T23:01:08.380Z,57.85
2023-01-22T23:03:11.256Z,58.70
2023-01-22T23:05:14.187Z,57.17
2023-01-22T23:07:18.778Z,53.90
2023-01-22T23:09:21.814Z,61.53
2023-01-22T23:11:27.262Z,58.10
2023-01-22T23:13:30.288Z,52.83
2023-01-22T23:15:34.007Z,56.65
2023-01-22T23:17:36.970Z,58.63
2023-01-22T23:19:39.929Z,60.78
2023-01-22T23:21:43.173Z,59.08
2023-01-22T23:23:47.787Z,54.50
2023-01-22T23:25:50.857Z,56.83
2023-01-22T23:27:55.902Z,57.42
2023-01-22T23:29:58.758Z,54.80
2023-01-22T23:32:01.808Z,56.35
2023-01-22T23:34:06.977Z,54.20
2023-01-22T23:36:12.408Z,45.90
2023-01-22T23:38:15.568Z,56.45
2023-01-22T23:40:20.304Z,49.00
2023-01-22T23:42:23.579Z,47.15
2023-01-22T23:44:26.846Z,52.50
2023-01-22T23:46:31.199Z,51.40
2023-01-22T23:48:34.168Z,54.90
2023-01-22T23:50:37.090Z,50.08
2023-01-22T23:52:39.878Z,50.75
2023-01-22T23:54:43.019Z,50.08
2023-01-22T23:56:47.409Z,47.00
2023-01-22T23:58:53.167Z,51.55
